ARG1884 SABE-SAWH
Flight info
| Callsign | ARG1884 |
|---|---|
| Flight time | 3h 10m |
| Altitude | 38000 |
| Route | PTA8 GBE UP664 DIL UT662 ASKAS UT704 DABLI DABLI2 |
| Aircraft | B38M/M-MSDFGHILORVW/SB1 |
Departure
| Time | 2026-04-30 19:14 |
|---|---|
| Airport | Aeroparque Jorge Newbery (SABE) |
Arrival
| Time | 2026-04-30 22:24 |
|---|---|
| Airport | Ushuaia - Malvinas Argentinas International Airport (SAWH) |
| Time | Latitude | Longitude | Altitude | Speed | Heading |
|---|---|---|---|---|---|
| 2026-04-30 18:34 | -34.55977 | -58.41126 | 29 ft | 0 kts | 275° |
| 2026-04-30 19:00 | -34.55977 | -58.41123 | 29 ft | 2 kts | 275° |
| 2026-04-30 19:01 | -34.55987 | -58.41067 | 29 ft | 4 kts | 303° |
| 2026-04-30 19:01 | -34.56006 | -58.41045 | 29 ft | 3 kts | 327° |
| 2026-04-30 19:02 | -34.56013 | -58.41039 | 29 ft | 0 kts | 328° |
| 2026-04-30 19:06 | -34.56011 | -58.41041 | 29 ft | 1 kts | 328° |
| 2026-04-30 19:06 | -34.55948 | -58.41104 | 29 ft | 11 kts | 310° |
| 2026-04-30 19:07 | -34.55891 | -58.41188 | 29 ft | 4 kts | 309° |
| 2026-04-30 19:07 | -34.55859 | -58.41238 | 49 ft | 8 kts | 298° |
| 2026-04-30 19:08 | -34.55900 | -58.41304 | 29 ft | 10 kts | 224° |
| 2026-04-30 19:08 | -34.55843 | -58.41494 | 29 ft | 22 kts | 297° |
| 2026-04-30 19:08 | -34.55786 | -58.41626 | 29 ft | 17 kts | 298° |
| 2026-04-30 19:09 | -34.55694 | -58.41828 | 29 ft | 17 kts | 304° |
| 2026-04-30 19:09 | -34.55628 | -58.41944 | 29 ft | 16 kts | 304° |
| 2026-04-30 19:09 | -34.55559 | -58.42064 | 29 ft | 18 kts | 305° |
| 2026-04-30 19:10 | -34.55430 | -58.42275 | 29 ft | 8 kts | 308° |
| 2026-04-30 19:10 | -34.55392 | -58.42333 | 29 ft | 5 kts | 308° |
| 2026-04-30 19:11 | -34.55373 | -58.42369 | 29 ft | 6 kts | 293° |
| 2026-04-30 19:11 | -34.55360 | -58.42428 | 29 ft | 11 kts | 279° |
| 2026-04-30 19:11 | -34.55381 | -58.42507 | 29 ft | 8 kts | 216° |
| 2026-04-30 19:12 | -34.55398 | -58.42512 | 29 ft | 0 kts | 155° |
| 2026-04-30 19:12 | -34.55398 | -58.42511 | 29 ft | 0 kts | 142° |
| 2026-04-30 19:12 | -34.55413 | -58.42492 | 29 ft | 6 kts | 130° |
| 2026-04-30 19:13 | -34.55420 | -58.42479 | 29 ft | 0 kts | 124° |
| 2026-04-30 19:13 | -34.55457 | -58.42413 | 30 ft | 36 kts | 124° |
| 2026-04-30 19:14 | -34.55759 | -58.41862 | 27 ft | 119 kts | 123° |
| 2026-04-30 19:14 | -34.56358 | -58.40810 | 95 ft | 177 kts | 124° |
| 2026-04-30 19:14 | -34.57067 | -58.39530 | 932 ft | 185 kts | 118° |
| 2026-04-30 19:14 | -34.57568 | -58.38078 | 1874 ft | 191 kts | 101° |
| 2026-04-30 19:15 | -34.57631 | -58.36405 | 2506 ft | 210 kts | 75° |
| 2026-04-30 19:15 | -34.55959 | -58.33220 | 3935 ft | 244 kts | 49° |
| 2026-04-30 19:15 | -34.55256 | -58.31289 | 4839 ft | 260 kts | 82° |
| 2026-04-30 19:16 | -34.55503 | -58.29117 | 5967 ft | 265 kts | 108° |
| 2026-04-30 19:16 | -34.56320 | -58.27096 | 6888 ft | 277 kts | 124° |
| 2026-04-30 19:16 | -34.59749 | -58.25142 | 8531 ft | 290 kts | 188° |
| 2026-04-30 19:17 | -34.61751 | -58.25681 | 9311 ft | 295 kts | 201° |
| 2026-04-30 19:17 | -34.65584 | -58.27124 | 11308 ft | 298 kts | 202° |
| 2026-04-30 19:17 | -34.67669 | -58.27753 | 11932 ft | 313 kts | 195° |
| 2026-04-30 19:18 | -34.71324 | -58.28351 | 13345 ft | 324 kts | 191° |
| 2026-04-30 19:18 | -34.74375 | -58.28815 | 14179 ft | 339 kts | 192° |
| 2026-04-30 19:18 | -34.76749 | -58.29184 | 14554 ft | 355 kts | 192° |
| 2026-04-30 19:19 | -34.79261 | -58.29574 | 14874 ft | 372 kts | 192° |
| 2026-04-30 19:19 | -34.81897 | -58.29983 | 15144 ft | 389 kts | 192° |
| 2026-04-30 19:19 | -34.87435 | -58.30853 | 15852 ft | 411 kts | 193° |
| 2026-04-30 19:20 | -34.90263 | -58.31325 | 16563 ft | 411 kts | 194° |
| 2026-04-30 19:20 | -34.93118 | -58.31820 | 17118 ft | 415 kts | 194° |
| 2026-04-30 19:20 | -34.98864 | -58.32826 | 18268 ft | 420 kts | 194° |
| 2026-04-30 19:21 | -35.01779 | -58.33339 | 18745 ft | 423 kts | 195° |
| 2026-04-30 19:21 | -35.07624 | -58.34374 | 19674 ft | 429 kts | 195° |
| 2026-04-30 19:22 | -35.13591 | -58.35433 | 20623 ft | 435 kts | 195° |
| 2026-04-30 19:22 | -35.22657 | -58.37045 | 21990 ft | 444 kts | 196° |
| 2026-04-30 19:23 | -35.31880 | -58.38691 | 23266 ft | 453 kts | 197° |
| 2026-04-30 19:24 | -35.38187 | -58.39818 | 24018 ft | 458 kts | 197° |
| 2026-04-30 19:24 | -35.41350 | -58.40385 | 24407 ft | 461 kts | 197° |
| 2026-04-30 19:24 | -35.47702 | -58.41526 | 25145 ft | 466 kts | 197° |
| 2026-04-30 19:25 | -35.57406 | -58.43274 | 26233 ft | 473 kts | 197° |
| 2026-04-30 19:26 | -35.63925 | -58.44452 | 26934 ft | 477 kts | 197° |
| 2026-04-30 19:26 | -35.70520 | -58.45646 | 27765 ft | 478 kts | 197° |
| 2026-04-30 19:26 | -35.73762 | -58.46240 | 28267 ft | 474 kts | 198° |
| 2026-04-30 19:27 | -35.79786 | -58.48893 | 29222 ft | 456 kts | 211° |
| 2026-04-30 19:27 | -35.85635 | -58.51844 | 30194 ft | 453 kts | 211° |
| 2026-04-30 19:28 | -35.88457 | -58.53282 | 30602 ft | 452 kts | 211° |
| 2026-04-30 19:28 | -35.94225 | -58.56226 | 31450 ft | 449 kts | 212° |
| 2026-04-30 19:29 | -35.99995 | -58.59175 | 32311 ft | 446 kts | 212° |
| 2026-04-30 19:29 | -36.02856 | -58.60640 | 32740 ft | 444 kts | 212° |
| 2026-04-30 19:30 | -36.11364 | -58.65002 | 34040 ft | 439 kts | 212° |
| 2026-04-30 19:30 | -36.16973 | -58.67884 | 34724 ft | 437 kts | 212° |
| 2026-04-30 19:31 | -36.22564 | -58.70760 | 35370 ft | 435 kts | 213° |
| 2026-04-30 19:31 | -36.25367 | -58.72204 | 35686 ft | 434 kts | 213° |
| 2026-04-30 19:31 | -36.30920 | -58.75067 | 36284 ft | 432 kts | 213° |
| 2026-04-30 19:32 | -36.33699 | -58.76502 | 36573 ft | 431 kts | 213° |
| 2026-04-30 19:32 | -36.36483 | -58.77940 | 36857 ft | 430 kts | 213° |
| 2026-04-30 19:32 | -36.39218 | -58.79355 | 37134 ft | 429 kts | 213° |
| 2026-04-30 19:32 | -36.41981 | -58.80784 | 37406 ft | 429 kts | 213° |
| 2026-04-30 19:33 | -36.44735 | -58.82211 | 37667 ft | 428 kts | 214° |
| 2026-04-30 19:33 | -36.47487 | -58.83637 | 37905 ft | 427 kts | 214° |
| 2026-04-30 19:33 | -36.52938 | -58.86465 | 37959 ft | 425 kts | 214° |
| 2026-04-30 19:34 | -36.58407 | -58.89307 | 37962 ft | 424 kts | 214° |
| 2026-04-30 19:35 | -36.66529 | -58.93523 | 38094 ft | 423 kts | 214° |
| 2026-04-30 19:35 | -36.69254 | -58.94952 | 37938 ft | 422 kts | 214° |
| 2026-04-30 19:35 | -36.71972 | -58.96374 | 37967 ft | 423 kts | 214° |
| 2026-04-30 19:36 | -36.77385 | -58.99204 | 37958 ft | 423 kts | 214° |
| 2026-04-30 19:36 | -36.85526 | -59.03465 | 37957 ft | 423 kts | 214° |
| 2026-04-30 19:37 | -36.90934 | -59.06302 | 37955 ft | 422 kts | 214° |
| 2026-04-30 19:37 | -36.96355 | -59.09149 | 37952 ft | 421 kts | 214° |
| 2026-04-30 19:38 | -37.01737 | -59.11980 | 37938 ft | 420 kts | 214° |
| 2026-04-30 19:38 | -37.07139 | -59.14827 | 37946 ft | 420 kts | 215° |
| 2026-04-30 19:39 | -37.12494 | -59.17652 | 37952 ft | 419 kts | 215° |
| 2026-04-30 19:39 | -37.17875 | -59.20495 | 37941 ft | 418 kts | 215° |
| 2026-04-30 19:40 | -37.23286 | -59.23184 | 37938 ft | 428 kts | 207° |
| 2026-04-30 19:40 | -37.28989 | -59.25274 | 37944 ft | 427 kts | 209° |
| 2026-04-30 19:41 | -37.34672 | -59.27467 | 37945 ft | 425 kts | 210° |
| 2026-04-30 19:41 | -37.40301 | -59.29658 | 37944 ft | 425 kts | 210° |
| 2026-04-30 19:42 | -37.45957 | -59.31865 | 37940 ft | 424 kts | 210° |
| 2026-04-30 19:42 | -37.51571 | -59.34059 | 37935 ft | 424 kts | 210° |
| 2026-04-30 19:43 | -37.57198 | -59.36262 | 37931 ft | 424 kts | 210° |
| 2026-04-30 19:44 | -37.65660 | -59.39580 | 37915 ft | 423 kts | 210° |
| 2026-04-30 19:44 | -37.71288 | -59.41792 | 37917 ft | 423 kts | 210° |
| 2026-04-30 19:45 | -37.76883 | -59.43994 | 37914 ft | 423 kts | 210° |
| 2026-04-30 19:45 | -37.82488 | -59.46203 | 37915 ft | 422 kts | 210° |
| 2026-04-30 19:46 | -37.88070 | -59.48406 | 37912 ft | 422 kts | 210° |
| 2026-04-30 19:46 | -37.93666 | -59.50620 | 37911 ft | 422 kts | 210° |
| 2026-04-30 19:47 | -37.99256 | -59.52834 | 37899 ft | 422 kts | 210° |
| 2026-04-30 19:47 | -38.04878 | -59.55065 | 37897 ft | 422 kts | 210° |
| 2026-04-30 19:48 | -38.10462 | -59.57283 | 37896 ft | 422 kts | 210° |
| 2026-04-30 19:48 | -38.16077 | -59.59518 | 37894 ft | 422 kts | 210° |
| 2026-04-30 19:49 | -38.21704 | -59.61761 | 37892 ft | 422 kts | 210° |
| 2026-04-30 19:49 | -38.30102 | -59.65114 | 37888 ft | 422 kts | 210° |
| 2026-04-30 19:50 | -38.35701 | -59.67347 | 37881 ft | 422 kts | 210° |
| 2026-04-30 19:50 | -38.41281 | -59.69576 | 37872 ft | 422 kts | 210° |
| 2026-04-30 19:51 | -38.46864 | -59.71809 | 37871 ft | 422 kts | 210° |
| 2026-04-30 19:51 | -38.52489 | -59.74063 | 37875 ft | 422 kts | 210° |
| 2026-04-30 19:52 | -38.58091 | -59.76311 | 37871 ft | 422 kts | 210° |
| 2026-04-30 19:52 | -38.63679 | -59.78557 | 37868 ft | 423 kts | 210° |
| 2026-04-30 19:53 | -38.69276 | -59.80811 | 37852 ft | 423 kts | 210° |
| 2026-04-30 19:53 | -38.74912 | -59.83084 | 37853 ft | 423 kts | 210° |
| 2026-04-30 19:54 | -38.80513 | -59.85346 | 37853 ft | 424 kts | 210° |
| 2026-04-30 19:54 | -38.86155 | -59.87630 | 37848 ft | 424 kts | 210° |
| 2026-04-30 19:55 | -38.91776 | -59.89908 | 37845 ft | 425 kts | 210° |
| 2026-04-30 19:55 | -38.97395 | -59.92189 | 37844 ft | 425 kts | 210° |
| 2026-04-30 19:56 | -39.03046 | -59.94487 | 37838 ft | 425 kts | 210° |
| 2026-04-30 19:56 | -39.08671 | -59.96779 | 37839 ft | 425 kts | 210° |
| 2026-04-30 19:57 | -39.13363 | -59.98693 | 37835 ft | 426 kts | 210° |
| 2026-04-30 19:57 | -39.19945 | -60.01382 | 37834 ft | 426 kts | 210° |
| 2026-04-30 19:58 | -39.24690 | -60.03325 | 37837 ft | 426 kts | 210° |
| 2026-04-30 19:58 | -39.30320 | -60.05633 | 37836 ft | 426 kts | 210° |
| 2026-04-30 19:59 | -39.35938 | -60.07939 | 37834 ft | 420 kts | 210° |
| 2026-04-30 19:59 | -39.41433 | -60.10199 | 37837 ft | 409 kts | 211° |
| 2026-04-30 20:00 | -39.44164 | -60.11325 | 37837 ft | 412 kts | 210° |
| 2026-04-30 20:00 | -39.49561 | -60.13552 | 37819 ft | 419 kts | 210° |
| 2026-04-30 20:01 | -39.58032 | -60.17042 | 37827 ft | 426 kts | 210° |
| 2026-04-30 20:01 | -39.63716 | -60.19405 | 37832 ft | 430 kts | 210° |
| 2026-04-30 20:02 | -39.72193 | -60.22924 | 37825 ft | 430 kts | 210° |
| 2026-04-30 20:03 | -39.80682 | -60.26449 | 37859 ft | 427 kts | 211° |
| 2026-04-30 20:03 | -39.86348 | -60.28819 | 37824 ft | 426 kts | 210° |
| 2026-04-30 20:04 | -39.92004 | -60.31182 | 37822 ft | 426 kts | 211° |
| 2026-04-30 20:05 | -40.00448 | -60.34716 | 37820 ft | 427 kts | 211° |
| 2026-04-30 20:05 | -40.08934 | -60.38278 | 37810 ft | 427 kts | 210° |
| 2026-04-30 20:06 | -40.14569 | -60.40649 | 37807 ft | 427 kts | 210° |
| 2026-04-30 20:06 | -40.20261 | -60.43047 | 37803 ft | 428 kts | 210° |
| 2026-04-30 20:07 | -40.25903 | -60.45429 | 37806 ft | 427 kts | 210° |
| 2026-04-30 20:08 | -40.34390 | -60.49018 | 37803 ft | 427 kts | 210° |
| 2026-04-30 20:08 | -40.40027 | -60.51406 | 37859 ft | 424 kts | 210° |
| 2026-04-30 20:08 | -40.42773 | -60.52564 | 38771 ft | 402 kts | 211° |
| 2026-04-30 20:09 | -40.45388 | -60.53672 | 39405 ft | 389 kts | 211° |
| 2026-04-30 20:09 | -40.53387 | -60.56891 | 38876 ft | 415 kts | 209° |
| 2026-04-30 20:10 | -40.58951 | -60.59065 | 38409 ft | 423 kts | 209° |
| 2026-04-30 20:10 | -40.61793 | -60.60178 | 38130 ft | 425 kts | 209° |
| 2026-04-30 20:10 | -40.64601 | -60.61280 | 37876 ft | 425 kts | 209° |
| 2026-04-30 20:11 | -40.70297 | -60.63518 | 37789 ft | 427 kts | 209° |
| 2026-04-30 20:11 | -40.75984 | -60.65756 | 37788 ft | 427 kts | 209° |
| 2026-04-30 20:12 | -40.84509 | -60.69119 | 37781 ft | 426 kts | 209° |
| 2026-04-30 20:13 | -40.90174 | -60.71358 | 37780 ft | 426 kts | 209° |
| 2026-04-30 20:13 | -40.95871 | -60.73615 | 37777 ft | 426 kts | 209° |
| 2026-04-30 20:14 | -41.01529 | -60.75860 | 37784 ft | 425 kts | 209° |
| 2026-04-30 20:14 | -41.07202 | -60.78115 | 37773 ft | 425 kts | 209° |
| 2026-04-30 20:15 | -41.12858 | -60.80368 | 37769 ft | 425 kts | 209° |
| 2026-04-30 20:15 | -41.18515 | -60.82624 | 37761 ft | 424 kts | 209° |
| 2026-04-30 20:16 | -41.24145 | -60.84874 | 37766 ft | 424 kts | 209° |
| 2026-04-30 20:16 | -41.29809 | -60.87142 | 37762 ft | 423 kts | 209° |
| 2026-04-30 20:17 | -41.35430 | -60.89397 | 37758 ft | 423 kts | 209° |
| 2026-04-30 20:17 | -41.41083 | -60.91668 | 37755 ft | 423 kts | 209° |
| 2026-04-30 20:18 | -41.46693 | -60.93926 | 37756 ft | 422 kts | 209° |
| 2026-04-30 20:18 | -41.52334 | -60.96202 | 37757 ft | 422 kts | 209° |
| 2026-04-30 20:19 | -41.57924 | -60.98460 | 37749 ft | 422 kts | 209° |
| 2026-04-30 20:19 | -41.63553 | -61.00738 | 37746 ft | 422 kts | 209° |
| 2026-04-30 20:20 | -41.69180 | -61.03020 | 37747 ft | 422 kts | 209° |
| 2026-04-30 20:20 | -41.74784 | -61.05297 | 37743 ft | 421 kts | 209° |
| 2026-04-30 20:21 | -41.80376 | -61.07572 | 37744 ft | 422 kts | 209° |
| 2026-04-30 20:21 | -41.86004 | -61.09867 | 37745 ft | 422 kts | 209° |
| 2026-04-30 20:22 | -41.91594 | -61.12150 | 37743 ft | 422 kts | 209° |
| 2026-04-30 20:22 | -41.97238 | -61.14460 | 37728 ft | 422 kts | 209° |
| 2026-04-30 20:23 | -42.02845 | -61.16759 | 37743 ft | 422 kts | 209° |
| 2026-04-30 20:23 | -42.08479 | -61.19073 | 37734 ft | 422 kts | 209° |
| 2026-04-30 20:24 | -42.14074 | -61.21375 | 37736 ft | 423 kts | 209° |
| 2026-04-30 20:24 | -42.19710 | -61.23699 | 37731 ft | 423 kts | 209° |
| 2026-04-30 20:25 | -42.28138 | -61.27181 | 37732 ft | 423 kts | 208° |
| 2026-04-30 20:26 | -42.36585 | -61.30682 | 37731 ft | 423 kts | 208° |
| 2026-04-30 20:26 | -42.45016 | -61.34185 | 37724 ft | 423 kts | 208° |
| 2026-04-30 20:27 | -42.56266 | -61.38875 | 37718 ft | 424 kts | 208° |
| 2026-04-30 20:28 | -42.67534 | -61.43591 | 37721 ft | 424 kts | 208° |
| 2026-04-30 20:30 | -42.81650 | -61.49523 | 37714 ft | 425 kts | 208° |
| 2026-04-30 20:31 | -42.98589 | -61.56680 | 37712 ft | 426 kts | 208° |
| 2026-04-30 20:32 | -43.12742 | -61.62691 | 37710 ft | 426 kts | 208° |
| 2026-04-30 20:33 | -43.21231 | -61.66310 | 37707 ft | 427 kts | 208° |
| 2026-04-30 20:34 | -43.29720 | -61.69938 | 37702 ft | 427 kts | 208° |
| 2026-04-30 20:35 | -43.38256 | -61.73599 | 37694 ft | 427 kts | 208° |
| 2026-04-30 20:35 | -43.46738 | -61.77246 | 37708 ft | 428 kts | 208° |
| 2026-04-30 20:36 | -43.52438 | -61.79703 | 37699 ft | 428 kts | 208° |
| 2026-04-30 20:37 | -43.60944 | -61.83380 | 37706 ft | 428 kts | 208° |
| 2026-04-30 20:37 | -43.66386 | -61.85737 | 37704 ft | 428 kts | 208° |
| 2026-04-30 20:38 | -43.72086 | -61.88211 | 37700 ft | 429 kts | 208° |
| 2026-04-30 20:38 | -43.77750 | -61.90675 | 37702 ft | 429 kts | 208° |
| 2026-04-30 20:39 | -43.86299 | -61.94402 | 37697 ft | 430 kts | 208° |
| 2026-04-30 20:40 | -43.94849 | -61.98142 | 37687 ft | 430 kts | 208° |
| 2026-04-30 20:40 | -44.00587 | -62.00658 | 37695 ft | 430 kts | 208° |
| 2026-04-30 20:41 | -44.05530 | -62.02826 | 38491 ft | 417 kts | 208° |
| 2026-04-30 20:41 | -44.08294 | -62.04044 | 38263 ft | 423 kts | 207° |
| 2026-04-30 20:41 | -44.11121 | -62.05290 | 37980 ft | 429 kts | 207° |
| 2026-04-30 20:41 | -44.13985 | -62.06552 | 37735 ft | 430 kts | 207° |
| 2026-04-30 20:42 | -44.19679 | -62.09065 | 37687 ft | 432 kts | 207° |
| 2026-04-30 20:43 | -44.28299 | -62.12880 | 37677 ft | 432 kts | 207° |
| 2026-04-30 20:43 | -44.34005 | -62.15411 | 37674 ft | 433 kts | 207° |
| 2026-04-30 20:44 | -44.42630 | -62.19248 | 37671 ft | 433 kts | 207° |
| 2026-04-30 20:45 | -44.54082 | -62.24361 | 37668 ft | 434 kts | 207° |
| 2026-04-30 20:45 | -44.59863 | -62.26949 | 37667 ft | 434 kts | 207° |
| 2026-04-30 20:46 | -44.70353 | -62.31661 | 37666 ft | 435 kts | 207° |
| 2026-04-30 20:47 | -44.79020 | -62.35567 | 37655 ft | 435 kts | 207° |
| 2026-04-30 20:48 | -44.87668 | -62.39476 | 37661 ft | 435 kts | 207° |
| 2026-04-30 20:48 | -44.93418 | -62.42081 | 37651 ft | 436 kts | 207° |
| 2026-04-30 20:49 | -44.99211 | -62.44712 | 37650 ft | 436 kts | 207° |
| 2026-04-30 20:50 | -45.07863 | -62.48656 | 37645 ft | 436 kts | 207° |
| 2026-04-30 20:50 | -45.13650 | -62.51301 | 37644 ft | 436 kts | 207° |
| 2026-04-30 20:51 | -45.19409 | -62.53937 | 37644 ft | 437 kts | 207° |
| 2026-04-30 20:51 | -45.28096 | -62.57925 | 37632 ft | 437 kts | 207° |
| 2026-04-30 20:52 | -45.33857 | -62.60576 | 37632 ft | 437 kts | 207° |
| 2026-04-30 20:53 | -45.42554 | -62.64589 | 37629 ft | 437 kts | 207° |
| 2026-04-30 20:53 | -45.48318 | -62.67257 | 37622 ft | 438 kts | 207° |
| 2026-04-30 20:54 | -45.57040 | -62.71304 | 37614 ft | 438 kts | 207° |
| 2026-04-30 20:55 | -45.65705 | -62.75338 | 37612 ft | 438 kts | 207° |
| 2026-04-30 20:55 | -45.71520 | -62.78052 | 37611 ft | 438 kts | 207° |
| 2026-04-30 20:56 | -45.80217 | -62.82123 | 37610 ft | 439 kts | 207° |
| 2026-04-30 20:57 | -45.88897 | -62.86199 | 37605 ft | 439 kts | 207° |
| 2026-04-30 20:57 | -45.94711 | -62.88937 | 37600 ft | 438 kts | 207° |
| 2026-04-30 20:58 | -46.03399 | -62.93039 | 37598 ft | 439 kts | 207° |
| 2026-04-30 20:58 | -46.09207 | -62.95789 | 37595 ft | 439 kts | 207° |
| 2026-04-30 20:59 | -46.17895 | -62.99914 | 37589 ft | 439 kts | 207° |
| 2026-04-30 21:00 | -46.29459 | -63.05426 | 37585 ft | 439 kts | 207° |
| 2026-04-30 21:01 | -46.38196 | -63.09607 | 37581 ft | 439 kts | 207° |
| 2026-04-30 21:02 | -46.46892 | -63.13783 | 37583 ft | 440 kts | 207° |
| 2026-04-30 21:02 | -46.52668 | -63.16563 | 37576 ft | 440 kts | 207° |
| 2026-04-30 21:03 | -46.58495 | -63.19375 | 37576 ft | 440 kts | 207° |
| 2026-04-30 21:03 | -46.64284 | -63.22175 | 37578 ft | 440 kts | 207° |
| 2026-04-30 21:04 | -46.70117 | -63.25003 | 37572 ft | 440 kts | 207° |
| 2026-04-30 21:04 | -46.78836 | -63.29242 | 37566 ft | 441 kts | 207° |
| 2026-04-30 21:05 | -46.84626 | -63.32065 | 37570 ft | 441 kts | 207° |
| 2026-04-30 21:05 | -46.90472 | -63.34921 | 37571 ft | 441 kts | 207° |
| 2026-04-30 21:06 | -46.96277 | -63.37764 | 37561 ft | 442 kts | 207° |
| 2026-04-30 21:06 | -47.02077 | -63.40612 | 37565 ft | 442 kts | 207° |
| 2026-04-30 21:07 | -47.07934 | -63.43493 | 37560 ft | 442 kts | 207° |
| 2026-04-30 21:07 | -47.13750 | -63.46361 | 37559 ft | 442 kts | 207° |
| 2026-04-30 21:08 | -47.19604 | -63.49255 | 37562 ft | 442 kts | 207° |
| 2026-04-30 21:08 | -47.25414 | -63.52134 | 37560 ft | 442 kts | 207° |
| 2026-04-30 21:09 | -47.31230 | -63.55022 | 37558 ft | 442 kts | 207° |
| 2026-04-30 21:09 | -47.37091 | -63.57940 | 37562 ft | 442 kts | 207° |
| 2026-04-30 21:10 | -47.42884 | -63.60830 | 37558 ft | 442 kts | 207° |
| 2026-04-30 21:10 | -47.48710 | -63.63743 | 37558 ft | 442 kts | 207° |
| 2026-04-30 21:11 | -47.54549 | -63.66670 | 37559 ft | 442 kts | 207° |
| 2026-04-30 21:11 | -47.60381 | -63.69600 | 37561 ft | 442 kts | 207° |
| 2026-04-30 21:12 | -47.66180 | -63.72521 | 37556 ft | 442 kts | 207° |
| 2026-04-30 21:12 | -47.72026 | -63.75472 | 37559 ft | 442 kts | 207° |
| 2026-04-30 21:13 | -47.77827 | -63.78408 | 37558 ft | 443 kts | 207° |
| 2026-04-30 21:13 | -47.83681 | -63.81377 | 37553 ft | 443 kts | 207° |
| 2026-04-30 21:14 | -47.89491 | -63.84331 | 37559 ft | 443 kts | 207° |
| 2026-04-30 21:14 | -47.95346 | -63.87315 | 37557 ft | 443 kts | 207° |
| 2026-04-30 21:15 | -48.01135 | -63.90271 | 37561 ft | 443 kts | 207° |
| 2026-04-30 21:15 | -48.06991 | -63.93268 | 37556 ft | 444 kts | 207° |
| 2026-04-30 21:16 | -48.12831 | -63.96265 | 37556 ft | 444 kts | 207° |
| 2026-04-30 21:16 | -48.18659 | -63.99261 | 37554 ft | 445 kts | 207° |
| 2026-04-30 21:17 | -48.24527 | -64.02287 | 37553 ft | 445 kts | 207° |
| 2026-04-30 21:17 | -48.30355 | -64.05308 | 37556 ft | 445 kts | 206° |
| 2026-04-30 21:18 | -48.36222 | -64.08350 | 37544 ft | 446 kts | 206° |
| 2026-04-30 21:18 | -48.42106 | -64.11408 | 37548 ft | 446 kts | 206° |
| 2026-04-30 21:19 | -48.47949 | -64.14452 | 37553 ft | 446 kts | 206° |
| 2026-04-30 21:19 | -48.53842 | -64.17529 | 37546 ft | 447 kts | 206° |
| 2026-04-30 21:20 | -48.59691 | -64.20591 | 37546 ft | 447 kts | 206° |
| 2026-04-30 21:20 | -48.65583 | -64.23684 | 37549 ft | 448 kts | 206° |
| 2026-04-30 21:21 | -48.71452 | -64.26771 | 37542 ft | 448 kts | 206° |
| 2026-04-30 21:22 | -48.80278 | -64.31429 | 37545 ft | 448 kts | 206° |
| 2026-04-30 21:23 | -48.92074 | -64.37681 | 37540 ft | 449 kts | 206° |
| 2026-04-30 21:23 | -49.00937 | -64.42400 | 37540 ft | 450 kts | 206° |
| 2026-04-30 21:24 | -49.06817 | -64.45540 | 37535 ft | 449 kts | 206° |
| 2026-04-30 21:24 | -49.12711 | -64.48696 | 37533 ft | 450 kts | 206° |
| 2026-04-30 21:25 | -49.21586 | -64.53462 | 37532 ft | 450 kts | 206° |
| 2026-04-30 21:26 | -49.30418 | -64.58224 | 37533 ft | 450 kts | 206° |
| 2026-04-30 21:27 | -49.39220 | -64.62988 | 37529 ft | 450 kts | 206° |
| 2026-04-30 21:27 | -49.45086 | -64.66172 | 37527 ft | 450 kts | 206° |
| 2026-04-30 21:28 | -49.53955 | -64.71003 | 37521 ft | 450 kts | 206° |
| 2026-04-30 21:29 | -49.62688 | -64.75778 | 37525 ft | 450 kts | 206° |
| 2026-04-30 21:30 | -49.77412 | -64.83869 | 37514 ft | 450 kts | 206° |
| 2026-04-30 21:31 | -49.92164 | -64.92029 | 37511 ft | 450 kts | 206° |
| 2026-04-30 21:32 | -50.00996 | -64.96939 | 37509 ft | 451 kts | 206° |
| 2026-04-30 21:32 | -50.06911 | -65.00239 | 37503 ft | 451 kts | 206° |
| 2026-04-30 21:33 | -50.15758 | -65.05190 | 37494 ft | 451 kts | 206° |
| 2026-04-30 21:34 | -50.21669 | -65.08509 | 37497 ft | 452 kts | 206° |
| 2026-04-30 21:34 | -50.29549 | -65.12947 | 37489 ft | 452 kts | 206° |
| 2026-04-30 21:35 | -50.36463 | -65.16854 | 37486 ft | 452 kts | 206° |
| 2026-04-30 21:35 | -50.41390 | -65.19646 | 37484 ft | 452 kts | 206° |
| 2026-04-30 21:36 | -50.47288 | -65.22996 | 37479 ft | 452 kts | 206° |
| 2026-04-30 21:37 | -50.59146 | -65.29758 | 37466 ft | 452 kts | 206° |
| 2026-04-30 21:37 | -50.65040 | -65.33132 | 37474 ft | 452 kts | 206° |
| 2026-04-30 21:38 | -50.70970 | -65.36537 | 37473 ft | 452 kts | 206° |
| 2026-04-30 21:38 | -50.76879 | -65.39938 | 37462 ft | 452 kts | 205° |
| 2026-04-30 21:39 | -50.82766 | -65.43336 | 37458 ft | 452 kts | 205° |
| 2026-04-30 21:39 | -50.88687 | -65.46762 | 37460 ft | 452 kts | 205° |
| 2026-04-30 21:40 | -50.94579 | -65.50182 | 37459 ft | 452 kts | 205° |
| 2026-04-30 21:40 | -51.00498 | -65.53625 | 37452 ft | 452 kts | 205° |
| 2026-04-30 21:41 | -51.06420 | -65.57081 | 37452 ft | 452 kts | 205° |
| 2026-04-30 21:41 | -51.12315 | -65.60530 | 37453 ft | 453 kts | 205° |
| 2026-04-30 21:42 | -51.18220 | -65.63994 | 37444 ft | 453 kts | 205° |
| 2026-04-30 21:42 | -51.24138 | -65.67476 | 37445 ft | 453 kts | 205° |
| 2026-04-30 21:43 | -51.30041 | -65.70957 | 37451 ft | 453 kts | 205° |
| 2026-04-30 21:43 | -51.35980 | -65.74471 | 37443 ft | 453 kts | 205° |
| 2026-04-30 21:44 | -51.41875 | -65.77967 | 37444 ft | 454 kts | 205° |
| 2026-04-30 21:44 | -51.47784 | -65.81480 | 37439 ft | 454 kts | 205° |
| 2026-04-30 21:45 | -51.53722 | -65.85020 | 37440 ft | 454 kts | 205° |
| 2026-04-30 21:45 | -51.59652 | -65.88564 | 37438 ft | 454 kts | 205° |
| 2026-04-30 21:46 | -51.65562 | -65.92107 | 37438 ft | 454 kts | 205° |
| 2026-04-30 21:46 | -51.71500 | -65.95676 | 37436 ft | 455 kts | 205° |
| 2026-04-30 21:47 | -51.77400 | -65.99232 | 37436 ft | 454 kts | 205° |
| 2026-04-30 21:47 | -51.83376 | -66.02564 | 37438 ft | 455 kts | 203° |
| 2026-04-30 21:48 | -51.89388 | -66.05907 | 37437 ft | 455 kts | 203° |
| 2026-04-30 21:48 | -51.95357 | -66.09239 | 37437 ft | 456 kts | 203° |
| 2026-04-30 21:49 | -52.01364 | -66.12602 | 37437 ft | 456 kts | 203° |
| 2026-04-30 21:49 | -52.07374 | -66.15975 | 37438 ft | 456 kts | 203° |
| 2026-04-30 21:50 | -52.13347 | -66.19338 | 37439 ft | 456 kts | 203° |
| 2026-04-30 21:50 | -52.19357 | -66.22731 | 37440 ft | 456 kts | 203° |
| 2026-04-30 21:51 | -52.25362 | -66.26131 | 37436 ft | 456 kts | 203° |
| 2026-04-30 21:51 | -52.31326 | -66.29517 | 37435 ft | 456 kts | 203° |
| 2026-04-30 21:52 | -52.37331 | -66.32937 | 37437 ft | 456 kts | 203° |
| 2026-04-30 21:52 | -52.43334 | -66.36366 | 37438 ft | 456 kts | 203° |
| 2026-04-30 21:53 | -52.49305 | -66.39785 | 37438 ft | 456 kts | 203° |
| 2026-04-30 21:53 | -52.55314 | -66.43237 | 37436 ft | 456 kts | 203° |
| 2026-04-30 21:54 | -52.61274 | -66.46670 | 37438 ft | 456 kts | 203° |
| 2026-04-30 21:54 | -52.67279 | -66.50139 | 37433 ft | 456 kts | 203° |
| 2026-04-30 21:55 | -52.73242 | -66.53594 | 37437 ft | 456 kts | 203° |
| 2026-04-30 21:55 | -52.79231 | -66.57075 | 37437 ft | 456 kts | 203° |
| 2026-04-30 21:56 | -52.85179 | -66.60541 | 37434 ft | 456 kts | 203° |
| 2026-04-30 21:56 | -52.91187 | -66.64050 | 37432 ft | 456 kts | 202° |
| 2026-04-30 21:57 | -52.97095 | -66.67689 | 37437 ft | 456 kts | 204° |
| 2026-04-30 21:57 | -53.03060 | -66.71418 | 37437 ft | 456 kts | 204° |
| 2026-04-30 21:58 | -53.08966 | -66.75116 | 37431 ft | 456 kts | 204° |
| 2026-04-30 21:58 | -53.14922 | -66.78856 | 37432 ft | 456 kts | 204° |
| 2026-04-30 21:59 | -53.20865 | -66.82598 | 37431 ft | 456 kts | 204° |
| 2026-04-30 22:00 | -53.29760 | -66.88221 | 37423 ft | 456 kts | 204° |
| 2026-04-30 22:00 | -53.38654 | -66.93868 | 37427 ft | 457 kts | 204° |
| 2026-04-30 22:01 | -53.44581 | -66.97645 | 37426 ft | 456 kts | 204° |
| 2026-04-30 22:01 | -53.50478 | -67.01414 | 37424 ft | 452 kts | 204° |
| 2026-04-30 22:02 | -53.56324 | -67.05162 | 37424 ft | 452 kts | 204° |
| 2026-04-30 22:02 | -53.62206 | -67.08944 | 37434 ft | 452 kts | 204° |
| 2026-04-30 22:03 | -53.68060 | -67.12720 | 37427 ft | 452 kts | 204° |
| 2026-04-30 22:03 | -53.73944 | -67.16525 | 37428 ft | 451 kts | 203° |
| 2026-04-30 22:04 | -53.76820 | -67.18390 | 37116 ft | 443 kts | 203° |
| 2026-04-30 22:04 | -53.79707 | -67.20264 | 36390 ft | 444 kts | 203° |
| 2026-04-30 22:04 | -53.85531 | -67.24053 | 34601 ft | 447 kts | 203° |
| 2026-04-30 22:05 | -53.88439 | -67.25949 | 33477 ft | 449 kts | 202° |
| 2026-04-30 22:05 | -53.91332 | -67.27837 | 32037 ft | 451 kts | 202° |
| 2026-04-30 22:05 | -53.94281 | -67.29766 | 30521 ft | 454 kts | 201° |
| 2026-04-30 22:05 | -53.97080 | -67.31579 | 29605 ft | 444 kts | 200° |
| 2026-04-30 22:06 | -53.99888 | -67.33417 | 29046 ft | 424 kts | 201° |
| 2026-04-30 22:06 | -54.05414 | -67.37076 | 26592 ft | 434 kts | 201° |
| 2026-04-30 22:06 | -54.08196 | -67.38911 | 25228 ft | 432 kts | 201° |
| 2026-04-30 22:07 | -54.11004 | -67.40764 | 23849 ft | 431 kts | 201° |
| 2026-04-30 22:07 | -54.13790 | -67.42605 | 22677 ft | 425 kts | 201° |
| 2026-04-30 22:07 | -54.16522 | -67.44414 | 21417 ft | 417 kts | 201° |
| 2026-04-30 22:07 | -54.19176 | -67.46173 | 20268 ft | 408 kts | 201° |
| 2026-04-30 22:08 | -54.21785 | -67.47904 | 19242 ft | 398 kts | 201° |
| 2026-04-30 22:08 | -54.24340 | -67.49601 | 18136 ft | 390 kts | 201° |
| 2026-04-30 22:08 | -54.26854 | -67.51274 | 17008 ft | 383 kts | 202° |
| 2026-04-30 22:08 | -54.29317 | -67.52915 | 15848 ft | 375 kts | 202° |
| 2026-04-30 22:09 | -54.31742 | -67.54532 | 14716 ft | 369 kts | 202° |
| 2026-04-30 22:09 | -54.34087 | -67.56098 | 13806 ft | 361 kts | 202° |
| 2026-04-30 22:09 | -54.36426 | -67.57661 | 13167 ft | 364 kts | 202° |
| 2026-04-30 22:09 | -54.38804 | -67.59252 | 12464 ft | 367 kts | 202° |
| 2026-04-30 22:10 | -54.41190 | -67.60851 | 12045 ft | 359 kts | 202° |
| 2026-04-30 22:10 | -54.43417 | -67.62345 | 11929 ft | 329 kts | 202° |
| 2026-04-30 22:10 | -54.45444 | -67.63706 | 11739 ft | 304 kts | 202° |
| 2026-04-30 22:10 | -54.47347 | -67.64985 | 11539 ft | 283 kts | 202° |
| 2026-04-30 22:11 | -54.50850 | -67.66719 | 11144 ft | 247 kts | 182° |
| 2026-04-30 22:11 | -54.52550 | -67.66773 | 10986 ft | 247 kts | 184° |
| 2026-04-30 22:11 | -54.54305 | -67.66846 | 10778 ft | 254 kts | 184° |
| 2026-04-30 22:12 | -54.56074 | -67.66906 | 10624 ft | 258 kts | 183° |
| 2026-04-30 22:12 | -54.57866 | -67.66959 | 10470 ft | 257 kts | 183° |
| 2026-04-30 22:12 | -54.59659 | -67.67009 | 10325 ft | 257 kts | 183° |
| 2026-04-30 22:12 | -54.61446 | -67.67055 | 10173 ft | 256 kts | 183° |
| 2026-04-30 22:13 | -54.63228 | -67.67099 | 9897 ft | 255 kts | 183° |
| 2026-04-30 22:13 | -54.64971 | -67.67143 | 9575 ft | 252 kts | 184° |
| 2026-04-30 22:13 | -54.66724 | -67.67186 | 9239 ft | 251 kts | 184° |
| 2026-04-30 22:13 | -54.68466 | -67.67229 | 8891 ft | 249 kts | 184° |
| 2026-04-30 22:14 | -54.70198 | -67.67271 | 8552 ft | 248 kts | 184° |
| 2026-04-30 22:14 | -54.71901 | -67.67313 | 8237 ft | 247 kts | 184° |
| 2026-04-30 22:14 | -54.73626 | -67.67355 | 7930 ft | 248 kts | 184° |
| 2026-04-30 22:14 | -54.75343 | -67.67398 | 7698 ft | 242 kts | 184° |
| 2026-04-30 22:15 | -54.76992 | -67.67437 | 7608 ft | 231 kts | 184° |
| 2026-04-30 22:15 | -54.78538 | -67.67476 | 7466 ft | 224 kts | 184° |
| 2026-04-30 22:15 | -54.80044 | -67.67829 | 7145 ft | 214 kts | 205° |
| 2026-04-30 22:15 | -54.81197 | -67.69370 | 6850 ft | 211 kts | 232° |
| 2026-04-30 22:16 | -54.81776 | -67.71687 | 6648 ft | 211 kts | 256° |
| 2026-04-30 22:16 | -54.81951 | -67.74149 | 6494 ft | 204 kts | 259° |
| 2026-04-30 22:17 | -54.82377 | -67.80757 | 6235 ft | 167 kts | 258° |
| 2026-04-30 22:17 | -54.82484 | -67.82709 | 5986 ft | 156 kts | 259° |
| 2026-04-30 22:17 | -54.82660 | -67.86412 | 5486 ft | 150 kts | 259° |
| 2026-04-30 22:18 | -54.82735 | -67.88157 | 5254 ft | 141 kts | 260° |
| 2026-04-30 22:18 | -54.82873 | -67.91522 | 5099 ft | 141 kts | 259° |
| 2026-04-30 22:19 | -54.83021 | -67.94962 | 5024 ft | 146 kts | 258° |
| 2026-04-30 22:19 | -54.83110 | -67.96742 | 4887 ft | 150 kts | 261° |
| 2026-04-30 22:19 | -54.83255 | -68.00488 | 4339 ft | 159 kts | 262° |
| 2026-04-30 22:20 | -54.83298 | -68.02429 | 3907 ft | 161 kts | 263° |
| 2026-04-30 22:20 | -54.83516 | -68.06193 | 3200 ft | 153 kts | 261° |
| 2026-04-30 22:20 | -54.83597 | -68.07987 | 2877 ft | 150 kts | 264° |
| 2026-04-30 22:21 | -54.83645 | -68.09798 | 2482 ft | 150 kts | 264° |
| 2026-04-30 22:21 | -54.83692 | -68.11596 | 2085 ft | 147 kts | 265° |
| 2026-04-30 22:21 | -54.83749 | -68.13351 | 1750 ft | 147 kts | 264° |
| 2026-04-30 22:21 | -54.83830 | -68.15104 | 1481 ft | 146 kts | 264° |
| 2026-04-30 22:22 | -54.83878 | -68.16841 | 1283 ft | 142 kts | 267° |
| 2026-04-30 22:22 | -54.83937 | -68.18602 | 1116 ft | 153 kts | 265° |
| 2026-04-30 22:22 | -54.83981 | -68.19830 | 1027 ft | 153 kts | 265° |
| 2026-04-30 22:22 | -54.84083 | -68.22174 | 756 ft | 143 kts | 264° |
| 2026-04-30 22:23 | -54.84143 | -68.23869 | 536 ft | 138 kts | 265° |
| 2026-04-30 22:23 | -54.84167 | -68.24953 | 390 ft | 135 kts | 264° |
| 2026-04-30 22:23 | -54.84242 | -68.27108 | 141 ft | 134 kts | 264° |
| 2026-04-30 22:23 | -54.84297 | -68.28568 | 58 ft | 120 kts | 263° |
| 2026-04-30 22:24 | -54.84328 | -68.29365 | 65 ft | 75 kts | 266° |
| 2026-04-30 22:24 | -54.84362 | -68.30118 | 65 ft | 59 kts | 267° |
| 2026-04-30 22:24 | -54.84381 | -68.30696 | 65 ft | 32 kts | 265° |
| 2026-04-30 22:24 | -54.84388 | -68.30906 | 65 ft | 8 kts | 278° |
| 2026-04-30 22:25 | -54.84356 | -68.30956 | 59 ft | 7 kts | 341° |
| 2026-04-30 22:25 | -54.84288 | -68.30967 | 62 ft | 10 kts | 356° |
| 2026-04-30 22:25 | -54.84236 | -68.30973 | 66 ft | 6 kts | 356° |
| 2026-04-30 22:25 | -54.84207 | -68.30976 | 71 ft | 3 kts | 356° |
| 2026-04-30 22:26 | -54.84192 | -68.30978 | 72 ft | 0 kts | 356° |
| 2026-04-30 22:26 | -54.84180 | -68.30979 | 71 ft | 5 kts | 356° |
| 2026-04-30 22:27 | -54.84124 | -68.30986 | 84 ft | 6 kts | 356° |
| 2026-04-30 22:27 | -54.84121 | -68.30986 | 83 ft | 0 kts | 356° |
| 2026-04-30 22:28 | -54.84104 | -68.30993 | 82 ft | 2 kts | 333° |
| 2026-04-30 22:28 | -54.84091 | -68.31019 | 79 ft | 3 kts | 296° |
| 2026-04-30 22:29 | -54.84094 | -68.31148 | 84 ft | 4 kts | 265° |
| 2026-04-30 22:29 | -54.84090 | -68.31179 | 82 ft | 0 kts | 318° |
| 2026-04-30 22:30 | -54.84026 | -68.31179 | 82 ft | 0 kts | 356° |